sensor_id;sensor_type;location;lat;lon;timestamp;temperature;humidity
46766;DHT22;32527;51.986;5.842;2023-02-15T00:01:10;3.30;99.90
46766;DHT22;32527;51.986;5.842;2023-02-15T00:06:03;3.30;99.90
46766;DHT22;32527;51.986;5.842;2023-02-15T00:11:14;3.30;99.90
46766;DHT22;32527;51.986;5.842;2023-02-15T00:13:40;3.60;99.90
46766;DHT22;32527;51.986;5.842;2023-02-15T00:16:12;3.20;99.90
46766;DHT22;32527;51.986;5.842;2023-02-15T00:18:39;3.30;99.90
46766;DHT22;32527;51.986;5.842;2023-02-15T00:21:09;3.30;99.90
46766;DHT22;32527;51.986;5.842;2023-02-15T00:26:10;3.10;99.90
46766;DHT22;32527;51.986;5.842;2023-02-15T00:31:03;3.20;99.90
46766;DHT22;32527;51.986;5.842;2023-02-15T00:33:29;3.10;99.90
46766;DHT22;32527;51.986;5.842;2023-02-15T00:35:59;2.90;99.90
46766;DHT22;32527;51.986;5.842;2023-02-15T00:38:26;3.40;99.90
46766;DHT22;32527;51.986;5.842;2023-02-15T00:40:56;3.10;99.90
46766;DHT22;32527;51.986;5.842;2023-02-15T01:05:17;2.90;99.90
46766;DHT22;32527;51.986;5.842;2023-02-15T01:10:09;2.80;99.90
46766;DHT22;32527;51.986;5.842;2023-02-15T01:24:45;2.80;99.90
46766;DHT22;32527;51.986;5.842;2023-02-15T01:39:22;3.00;99.90
46766;DHT22;32527;51.986;5.842;2023-02-15T01:47:43;3.00;99.90
46766;DHT22;32527;51.986;5.842;2023-02-15T01:55:57;3.00;99.90
46766;DHT22;32527;51.986;5.842;2023-02-15T01:58:24;2.60;99.90
46766;DHT22;32527;51.986;5.842;2023-02-15T02:03:18;3.00;99.90
46766;DHT22;32527;51.986;5.842;2023-02-15T02:05:46;2.90;99.90
46766;DHT22;32527;51.986;5.842;2023-02-15T02:13:06;2.80;99.90
46766;DHT22;32527;51.986;5.842;2023-02-15T02:15:44;2.70;99.90
46766;DHT22;32527;51.986;5.842;2023-02-15T02:18:36;2.70;99.90
46766;DHT22;32527;51.986;5.842;2023-02-15T02:26:47;2.70;99.90
46766;DHT22;32527;51.986;5.842;2023-02-15T02:32:28;2.60;99.90
46766;DHT22;32527;51.986;5.842;2023-02-15T02:35:11;2.80;99.90
46766;DHT22;32527;51.986;5.842;2023-02-15T02:37:55;2.90;99.90
46766;DHT22;32527;51.986;5.842;2023-02-15T02:42:59;2.60;99.90
46766;DHT22;32527;51.986;5.842;2023-02-15T02:45:32;2.60;99.90
46766;DHT22;32527;51.986;5.842;2023-02-15T02:48:09;2.20;99.90
46766;DHT22;32527;51.986;5.842;2023-02-15T02:50:39;2.50;99.90
46766;DHT22;32527;51.986;5.842;2023-02-15T02:53:05;2.30;99.90
46766;DHT22;32527;51.986;5.842;2023-02-15T02:55:40;2.40;99.90
46766;DHT22;32527;51.986;5.842;2023-02-15T02:58:21;2.40;99.90
46766;DHT22;32527;51.986;5.842;2023-02-15T03:01:15;2.40;99.90
46766;DHT22;32527;51.986;5.842;2023-02-15T03:03:47;2.20;99.90
46766;DHT22;32527;51.986;5.842;2023-02-15T03:06:38;2.30;99.90
46766;DHT22;32527;51.986;5.842;2023-02-15T03:09:15;2.20;99.90
46766;DHT22;32527;51.986;5.842;2023-02-15T03:11:44;2.40;99.90
46766;DHT22;32527;51.986;5.842;2023-02-15T03:14:12;2.30;99.90
46766;DHT22;32527;51.986;5.842;2023-02-15T03:16:40;2.30;99.90
46766;DHT22;32527;51.986;5.842;2023-02-15T03:19:15;2.40;99.90
46766;DHT22;32527;51.986;5.842;2023-02-15T03:21:47;2.80;99.90
46766;DHT22;32527;51.986;5.842;2023-02-15T03:27:34;2.50;99.90
46766;DHT22;32527;51.986;5.842;2023-02-15T03:30:02;1.90;99.90
46766;DHT22;32527;51.986;5.842;2023-02-15T03:32:30;2.30;99.90
46766;DHT22;32527;51.986;5.842;2023-02-15T03:34:57;2.20;99.90
46766;DHT22;32527;51.986;5.842;2023-02-15T03:37:36;2.10;99.90
46766;DHT22;32527;51.986;5.842;2023-02-15T03:40:23;2.20;99.90
46766;DHT22;32527;51.986;5.842;2023-02-15T03:46:29;2.00;99.90
46766;DHT22;32527;51.986;5.842;2023-02-15T03:51:46;2.40;99.90
46766;DHT22;32527;51.986;5.842;2023-02-15T03:57:06;2.00;99.90
46766;DHT22;32527;51.986;5.842;2023-02-15T03:59:51;1.80;99.90
46766;DHT22;32527;51.986;5.842;2023-02-15T04:02:48;2.40;99.90
46766;DHT22;32527;51.986;5.842;2023-02-15T04:05:17;2.00;99.90
46766;DHT22;32527;51.986;5.842;2023-02-15T04:07:43;1.80;99.90
46766;DHT22;32527;51.986;5.842;2023-02-15T04:10:09;2.10;99.90
46766;DHT22;32527;51.986;5.842;2023-02-15T04:12:53;1.90;99.90
46766;DHT22;32527;51.986;5.842;2023-02-15T04:18:04;1.70;99.90
46766;DHT22;32527;51.986;5.842;2023-02-15T04:20:29;2.00;99.90
46766;DHT22;32527;51.986;5.842;2023-02-15T04:23:14;1.60;99.90
46766;DHT22;32527;51.986;5.842;2023-02-15T04:25:57;1.90;99.90
46766;DHT22;32527;51.986;5.842;2023-02-15T04:28:23;2.10;99.90
46766;DHT22;32527;51.986;5.842;2023-02-15T04:35:43;2.10;99.90
46766;DHT22;32527;51.986;5.842;2023-02-15T04:45:28;1.80;99.90
46766;DHT22;32527;51.986;5.842;2023-02-15T04:55:12;1.70;99.90
46766;DHT22;32527;51.986;5.842;2023-02-15T05:00:04;1.50;99.90
46766;DHT22;32527;51.986;5.842;2023-02-15T05:27:13;1.80;99.90
46766;DHT22;32527;51.986;5.842;2023-02-15T05:29:57;1.60;99.90
46766;DHT22;32527;51.986;5.842;2023-02-15T05:32:22;1.60;99.90
46766;DHT22;32527;51.986;5.842;2023-02-15T05:49:25;1.70;99.90
46766;DHT22;32527;51.986;5.842;2023-02-15T06:01:35;1.40;99.90
46766;DHT22;32527;51.986;5.842;2023-02-15T06:25:55;1.40;99.90
46766;DHT22;32527;51.986;5.842;2023-02-15T06:28:21;1.00;99.90
46766;DHT22;32527;51.986;5.842;2023-02-15T06:30:46;1.30;99.90
46766;DHT22;32527;51.986;5.842;2023-02-15T06:50:14;1.00;99.90
46766;DHT22;32527;51.986;5.842;2023-02-15T06:52:40;1.00;99.90
46766;DHT22;32527;51.986;5.842;2023-02-15T07:14:54;1.50;99.90
46766;DHT22;32527;51.986;5.842;2023-02-15T07:29:29;1.60;99.90
46766;DHT22;32527;51.986;5.842;2023-02-15T07:31:55;1.70;99.90
46766;DHT22;32527;51.986;5.842;2023-02-15T07:44:14;2.20;99.90
46766;DHT22;32527;51.986;5.842;2023-02-15T07:59:10;2.50;99.90
46766;DHT22;32527;51.986;5.842;2023-02-15T08:02:47;2.50;99.90
46766;DHT22;32527;51.986;5.842;2023-02-15T08:06:28;2.60;99.90
46766;DHT22;32527;51.986;5.842;2023-02-15T08:10:07;2.70;99.90
46766;DHT22;32527;51.986;5.842;2023-02-15T08:13:20;2.70;99.90
46766;DHT22;32527;51.986;5.842;2023-02-15T08:20:02;2.90;99.90
46766;DHT22;32527;51.986;5.842;2023-02-15T08:23:05;2.90;99.90
46766;DHT22;32527;51.986;5.842;2023-02-15T08:29:29;3.40;99.90
46766;DHT22;32527;51.986;5.842;2023-02-15T08:32:01;3.20;99.90
46766;DHT22;32527;51.986;5.842;2023-02-15T08:34:29;3.30;99.90
46766;DHT22;32527;51.986;5.842;2023-02-15T08:36:55;3.20;99.90
46766;DHT22;32527;51.986;5.842;2023-02-15T08:39:21;3.40;99.90
46766;DHT22;32527;51.986;5.842;2023-02-15T08:41:48;4.10;99.90
46766;DHT22;32527;51.986;5.842;2023-02-15T08:44:16;3.40;99.90
46766;DHT22;32527;51.986;5.842;2023-02-15T08:46:43;3.50;99.90
46766;DHT22;32527;51.986;5.842;2023-02-15T08:49:12;3.50;99.90
46766;DHT22;32527;51.986;5.842;2023-02-15T08:51:39;3.50;99.90
46766;DHT22;32527;51.986;5.842;2023-02-15T08:54:07;3.70;99.90
46766;DHT22;32527;51.986;5.842;2023-02-15T08:56:40;3.80;99.90
46766;DHT22;32527;51.986;5.842;2023-02-15T08:59:07;3.90;99.90
46766;DHT22;32527;51.986;5.842;2023-02-15T09:01:36;4.00;99.90
46766;DHT22;32527;51.986;5.842;2023-02-15T09:04:05;4.00;99.90
46766;DHT22;32527;51.986;5.842;2023-02-15T09:06:31;4.30;99.90
46766;DHT22;32527;51.986;5.842;2023-02-15T09:08:58;4.20;99.90
46766;DHT22;32527;51.986;5.842;2023-02-15T09:11:29;4.60;99.90
46766;DHT22;32527;51.986;5.842;2023-02-15T09:14:00;4.60;99.90
46766;DHT22;32527;51.986;5.842;2023-02-15T09:16:29;4.80;99.90
46766;DHT22;32527;51.986;5.842;2023-02-15T09:18:55;4.60;99.90
46766;DHT22;32527;51.986;5.842;2023-02-15T09:21:24;4.60;99.90
46766;DHT22;32527;51.986;5.842;2023-02-15T09:23:52;5.20;99.90
46766;DHT22;32527;51.986;5.842;2023-02-15T09:26:21;4.80;99.90
46766;DHT22;32527;51.986;5.842;2023-02-15T09:28:50;5.20;99.90
46766;DHT22;32527;51.986;5.842;2023-02-15T09:31:19;5.10;99.90
46766;DHT22;32527;51.986;5.842;2023-02-15T09:33:46;5.10;99.90
46766;DHT22;32527;51.986;5.842;2023-02-15T09:36:33;5.10;99.90
46766;DHT22;32527;51.986;5.842;2023-02-15T09:39:08;5.00;99.90
46766;DHT22;32527;51.986;5.842;2023-02-15T09:50:01;6.40;99.90
46766;DHT22;32527;51.986;5.842;2023-02-15T10:03:42;6.00;99.90
46766;DHT22;32527;51.986;5.842;2023-02-15T10:20:34;6.50;99.90
46766;DHT22;32527;51.986;5.842;2023-02-15T10:26:12;7.00;99.90
46766;DHT22;32527;51.986;5.842;2023-02-15T10:31:47;7.20;99.90
46766;DHT22;32527;51.986;5.842;2023-02-15T10:45:46;7.60;99.90
46766;DHT22;32527;51.986;5.842;2023-02-15T11:07:47;8.40;99.90
46766;DHT22;32527;51.986;5.842;2023-02-15T11:10:30;8.50;99.90
46766;DHT22;32527;51.986;5.842;2023-02-15T11:13:00;8.60;99.90
46766;DHT22;32527;51.986;5.842;2023-02-15T11:15:31;8.90;99.90
46766;DHT22;32527;51.986;5.842;2023-02-15T11:18:39;8.90;99.90
46766;DHT22;32527;51.986;5.842;2023-02-15T11:24:16;8.80;99.90
46766;DHT22;32527;51.986;5.842;2023-02-15T11:27:04;9.00;99.90
46766;DHT22;32527;51.986;5.842;2023-02-15T11:29:46;9.10;99.90
46766;DHT22;32527;51.986;5.842;2023-02-15T11:37:58;9.30;99.90
46766;DHT22;32527;51.986;5.842;2023-02-15T11:40:43;9.40;99.90
46766;DHT22;32527;51.986;5.842;2023-02-15T11:43:15;9.70;99.90
46766;DHT22;32527;51.986;5.842;2023-02-15T11:45:44;9.90;99.90
46766;DHT22;32527;51.986;5.842;2023-02-15T11:48:13;10.10;99.90
46766;DHT22;32527;51.986;5.842;2023-02-15T11:50:39;10.20;99.90
46766;DHT22;32527;51.986;5.842;2023-02-15T11:53:20;10.30;99.90
46766;DHT22;32527;51.986;5.842;2023-02-15T11:55:55;10.40;99.90
46766;DHT22;32527;51.986;5.842;2023-02-15T12:03:54;10.70;99.90
46766;DHT22;32527;51.986;5.842;2023-02-15T12:06:28;11.00;99.90
46766;DHT22;32527;51.986;5.842;2023-02-15T12:09:03;11.30;99.90
46766;DHT22;32527;51.986;5.842;2023-02-15T12:11:39;12.10;99.90
46766;DHT22;32527;51.986;5.842;2023-02-15T12:14:08;11.90;99.90
46766;DHT22;32527;51.986;5.842;2023-02-15T12:16:44;12.50;99.90
46766;DHT22;32527;51.986;5.842;2023-02-15T12:19:33;12.90;99.90
46766;DHT22;32527;51.986;5.842;2023-02-15T12:22:04;13.20;99.30
46766;DHT22;32527;51.986;5.842;2023-02-15T12:24:37;13.10;98.30
46766;DHT22;32527;51.986;5.842;2023-02-15T12:27:27;12.80;98.50
46766;DHT22;32527;51.986;5.842;2023-02-15T12:30:01;12.70;99.40
46766;DHT22;32527;51.986;5.842;2023-02-15T12:32:33;12.20;99.90
46766;DHT22;32527;51.986;5.842;2023-02-15T12:35:14;11.60;99.90
46766;DHT22;32527;51.986;5.842;2023-02-15T12:38:19;11.60;99.90
46766;DHT22;32527;51.986;5.842;2023-02-15T12:41:04;11.40;99.90
46766;DHT22;32527;51.986;5.842;2023-02-15T12:43:36;11.20;99.90
46766;DHT22;32527;51.986;5.842;2023-02-15T12:48:46;11.20;99.90
46766;DHT22;32527;51.986;5.842;2023-02-15T12:51:14;11.20;99.90
46766;DHT22;32527;51.986;5.842;2023-02-15T12:53:40;11.30;99.90
46766;DHT22;32527;51.986;5.842;2023-02-15T12:56:09;11.10;99.90
46766;DHT22;32527;51.986;5.842;2023-02-15T12:58:37;10.90;99.90
46766;DHT22;32527;51.986;5.842;2023-02-15T13:03:30;11.30;99.90
46766;DHT22;32527;51.986;5.842;2023-02-15T13:05:57;11.30;99.90
46766;DHT22;32527;51.986;5.842;2023-02-15T13:08:46;11.40;99.90
46766;DHT22;32527;51.986;5.842;2023-02-15T13:11:27;11.40;99.90
46766;DHT22;32527;51.986;5.842;2023-02-15T13:14:02;11.40;99.90
46766;DHT22;32527;51.986;5.842;2023-02-15T13:16:39;11.30;99.90
46766;DHT22;32527;51.986;5.842;2023-02-15T13:19:19;11.40;99.90
46766;DHT22;32527;51.986;5.842;2023-02-15T13:21:51;11.30;99.90
46766;DHT22;32527;51.986;5.842;2023-02-15T13:24:37;11.30;99.90
46766;DHT22;32527;51.986;5.842;2023-02-15T13:27:04;11.20;99.90
46766;DHT22;32527;51.986;5.842;2023-02-15T13:29:36;11.20;99.90
46766;DHT22;32527;51.986;5.842;2023-02-15T13:32:27;12.30;99.90
46766;DHT22;32527;51.986;5.842;2023-02-15T13:34:59;11.10;99.90
46766;DHT22;32527;51.986;5.842;2023-02-15T13:37:54;11.20;99.90
46766;DHT22;32527;51.986;5.842;2023-02-15T13:40:58;11.30;99.90
46766;DHT22;32527;51.986;5.842;2023-02-15T13:52:02;13.00;99.90
46766;DHT22;32527;51.986;5.842;2023-02-15T14:11:56;11.70;99.90
46766;DHT22;32527;51.986;5.842;2023-02-15T14:19:58;11.60;99.90
46766;DHT22;32527;51.986;5.842;2023-02-15T14:22:39;11.60;99.90
46766;DHT22;32527;51.986;5.842;2023-02-15T14:25:21;11.50;99.90
46766;DHT22;32527;51.986;5.842;2023-02-15T14:28:15;11.50;99.90
46766;DHT22;32527;51.986;5.842;2023-02-15T14:30:45;11.40;99.90
46766;DHT22;32527;51.986;5.842;2023-02-15T14:35:42;11.50;99.90
46766;DHT22;32527;51.986;5.842;2023-02-15T14:38:36;12.60;99.90
46766;DHT22;32527;51.986;5.842;2023-02-15T14:41:15;11.60;99.90
46766;DHT22;32527;51.986;5.842;2023-02-15T14:46:30;11.70;99.90
46766;DHT22;32527;51.986;5.842;2023-02-15T14:49:14;11.60;99.90
46766;DHT22;32527;51.986;5.842;2023-02-15T15:02:24;11.50;99.90
46766;DHT22;32527;51.986;5.842;2023-02-15T15:05:07;11.50;99.90
46766;DHT22;32527;51.986;5.842;2023-02-15T15:07:47;11.40;99.90
46766;DHT22;32527;51.986;5.842;2023-02-15T15:12:47;11.30;99.90
46766;DHT22;32527;51.986;5.842;2023-02-15T15:34:21;10.70;99.90
46766;DHT22;32527;51.986;5.842;2023-02-15T15:48:35;10.50;99.90
46766;DHT22;32527;51.986;5.842;2023-02-15T15:51:10;10.40;99.90
46766;DHT22;32527;51.986;5.842;2023-02-15T15:53:42;10.40;99.90
46766;DHT22;32527;51.986;5.842;2023-02-15T15:56:14;10.40;99.90
46766;DHT22;32527;51.986;5.842;2023-02-15T15:58:50;10.50;99.90
46766;DHT22;32527;51.986;5.842;2023-02-15T16:01:24;10.40;99.90
46766;DHT22;32527;51.986;5.842;2023-02-15T16:03:54;10.30;99.90
46766;DHT22;32527;51.986;5.842;2023-02-15T16:08:56;10.10;99.90
46766;DHT22;32527;51.986;5.842;2023-02-15T16:11:24;10.70;99.90
46766;DHT22;32527;51.986;5.842;2023-02-15T16:13:51;9.90;99.90
46766;DHT22;32527;51.986;5.842;2023-02-15T16:16:23;9.70;99.90
46766;DHT22;32527;51.986;5.842;2023-02-15T16:18:50;10.50;99.90
46766;DHT22;32527;51.986;5.842;2023-02-15T16:21:19;9.50;99.90
46766;DHT22;32527;51.986;5.842;2023-02-15T16:29:40;9.30;99.90
46766;DHT22;32527;51.986;5.842;2023-02-15T16:35:02;9.10;99.90
46766;DHT22;32527;51.986;5.842;2023-02-15T16:37:32;9.10;99.90
46766;DHT22;32527;51.986;5.842;2023-02-15T16:39:59;9.00;99.90
46766;DHT22;32527;51.986;5.842;2023-02-15T16:42:25;9.00;99.90
46766;DHT22;32527;51.986;5.842;2023-02-15T16:47:28;8.90;99.90
46766;DHT22;32527;51.986;5.842;2023-02-15T16:49:57;8.80;99.90
46766;DHT22;32527;51.986;5.842;2023-02-15T16:52:26;8.80;99.90
46766;DHT22;32527;51.986;5.842;2023-02-15T16:54:59;8.80;99.90
46766;DHT22;32527;51.986;5.842;2023-02-15T16:57:31;8.80;99.90
46766;DHT22;32527;51.986;5.842;2023-02-15T17:00:05;8.80;99.90
46766;DHT22;32527;51.986;5.842;2023-02-15T17:02:33;8.70;99.90
46766;DHT22;32527;51.986;5.842;2023-02-15T17:05:07;8.60;99.90
46766;DHT22;32527;51.986;5.842;2023-02-15T17:07:33;8.60;99.90
46766;DHT22;32527;51.986;5.842;2023-02-15T17:10:28;8.50;99.90
46766;DHT22;32527;51.986;5.842;2023-02-15T17:12:56;8.50;99.90
46766;DHT22;32527;51.986;5.842;2023-02-15T17:15:34;8.50;99.90
46766;DHT22;32527;51.986;5.842;2023-02-15T17:20:32;8.50;99.90
46766;DHT22;32527;51.986;5.842;2023-02-15T17:22:58;8.50;99.90
46766;DHT22;32527;51.986;5.842;2023-02-15T17:25:34;8.50;99.90
46766;DHT22;32527;51.986;5.842;2023-02-15T17:28:00;8.40;99.90
46766;DHT22;32527;51.986;5.842;2023-02-15T17:30:30;8.40;99.90
46766;DHT22;32527;51.986;5.842;2023-02-15T17:32:59;8.40;99.90
46766;DHT22;32527;51.986;5.842;2023-02-15T17:35:30;8.30;99.90
46766;DHT22;32527;51.986;5.842;2023-02-15T17:38:20;8.30;99.90
46766;DHT22;32527;51.986;5.842;2023-02-15T17:40:46;8.10;99.90
46766;DHT22;32527;51.986;5.842;2023-02-15T17:43:12;8.00;99.90
46766;DHT22;32527;51.986;5.842;2023-02-15T17:45:46;7.90;99.90
46766;DHT22;32527;51.986;5.842;2023-02-15T17:50:48;8.80;99.90
46766;DHT22;32527;51.986;5.842;2023-02-15T17:53:16;9.00;99.90
46766;DHT22;32527;51.986;5.842;2023-02-15T17:55:43;7.60;99.90
46766;DHT22;32527;51.986;5.842;2023-02-15T17:58:14;7.50;99.90
46766;DHT22;32527;51.986;5.842;2023-02-15T18:00:45;7.40;99.90
46766;DHT22;32527;51.986;5.842;2023-02-15T18:06:24;7.30;99.90
46766;DHT22;32527;51.986;5.842;2023-02-15T18:09:17;7.30;99.90
46766;DHT22;32527;51.986;5.842;2023-02-15T18:12:02;7.20;99.90
46766;DHT22;32527;51.986;5.842;2023-02-15T18:14:31;7.30;99.90
46766;DHT22;32527;51.986;5.842;2023-02-15T18:16:57;7.30;99.90
46766;DHT22;32527;51.986;5.842;2023-02-15T18:19:26;7.20;99.90
46766;DHT22;32527;51.986;5.842;2023-02-15T18:21:52;8.20;99.90
46766;DHT22;32527;51.986;5.842;2023-02-15T18:24:22;7.20;99.90
46766;DHT22;32527;51.986;5.842;2023-02-15T18:26:49;7.20;99.90
46766;DHT22;32527;51.986;5.842;2023-02-15T18:29:15;7.20;99.90
46766;DHT22;32527;51.986;5.842;2023-02-15T18:31:41;9.60;99.90
46766;DHT22;32527;51.986;5.842;2023-02-15T18:34:25;7.20;99.90
46766;DHT22;32527;51.986;5.842;2023-02-15T18:36:53;7.20;99.90
46766;DHT22;32527;51.986;5.842;2023-02-15T18:39:32;7.20;99.90
46766;DHT22;32527;51.986;5.842;2023-02-15T18:41:58;7.30;99.90
46766;DHT22;32527;51.986;5.842;2023-02-15T18:44:25;7.10;99.90
46766;DHT22;32527;51.986;5.842;2023-02-15T18:46:50;7.10;99.90
46766;DHT22;32527;51.986;5.842;2023-02-15T18:49:16;6.80;99.90
46766;DHT22;32527;51.986;5.842;2023-02-15T18:51:42;7.00;99.90
46766;DHT22;32527;51.986;5.842;2023-02-15T18:54:19;7.00;99.90
46766;DHT22;32527;51.986;5.842;2023-02-15T18:56:50;6.90;99.90
46766;DHT22;32527;51.986;5.842;2023-02-15T18:59:17;6.80;99.90
46766;DHT22;32527;51.986;5.842;2023-02-15T19:01:43;6.80;99.90
46766;DHT22;32527;51.986;5.842;2023-02-15T19:04:09;6.70;99.90
46766;DHT22;32527;51.986;5.842;2023-02-15T19:06:36;6.70;99.90
46766;DHT22;32527;51.986;5.842;2023-02-15T19:09:04;6.70;99.90
46766;DHT22;32527;51.986;5.842;2023-02-15T19:11:30;6.70;99.90
46766;DHT22;32527;51.986;5.842;2023-02-15T19:13:55;6.70;99.90
46766;DHT22;32527;51.986;5.842;2023-02-15T19:16:32;6.60;99.90
46766;DHT22;32527;51.986;5.842;2023-02-15T19:18:59;6.60;99.90
46766;DHT22;32527;51.986;5.842;2023-02-15T19:21:27;6.60;99.90
46766;DHT22;32527;51.986;5.842;2023-02-15T19:24:00;6.50;99.90
46766;DHT22;32527;51.986;5.842;2023-02-15T19:26:28;6.50;99.90
46766;DHT22;32527;51.986;5.842;2023-02-15T19:28:59;6.70;99.90
46766;DHT22;32527;51.986;5.842;2023-02-15T19:31:26;6.60;99.90
46766;DHT22;32527;51.986;5.842;2023-02-15T19:33:51;6.50;99.90
46766;DHT22;32527;51.986;5.842;2023-02-15T19:36:17;6.60;99.90
46766;DHT22;32527;51.986;5.842;2023-02-15T19:38:48;6.20;99.90
46766;DHT22;32527;51.986;5.842;2023-02-15T19:41:30;8.70;99.90
46766;DHT22;32527;51.986;5.842;2023-02-15T19:43:57;6.50;99.90
46766;DHT22;32527;51.986;5.842;2023-02-15T19:46:24;6.60;99.90
46766;DHT22;32527;51.986;5.842;2023-02-15T19:51:24;8.30;99.90
46766;DHT22;32527;51.986;5.842;2023-02-15T19:53:50;6.50;99.90
46766;DHT22;32527;51.986;5.842;2023-02-15T19:56:20;6.50;99.90
46766;DHT22;32527;51.986;5.842;2023-02-15T19:58:46;6.50;99.90
46766;DHT22;32527;51.986;5.842;2023-02-15T20:01:12;6.40;99.90
46766;DHT22;32527;51.986;5.842;2023-02-15T20:03:37;6.50;99.90
46766;DHT22;32527;51.986;5.842;2023-02-15T20:06:03;6.50;99.90
46766;DHT22;32527;51.986;5.842;2023-02-15T20:08:30;6.50;99.90
46766;DHT22;32527;51.986;5.842;2023-02-15T20:10:57;6.50;99.90
46766;DHT22;32527;51.986;5.842;2023-02-15T20:13:23;6.40;99.90
46766;DHT22;32527;51.986;5.842;2023-02-15T20:15:50;6.50;99.90
46766;DHT22;32527;51.986;5.842;2023-02-15T20:18:16;6.30;99.90
46766;DHT22;32527;51.986;5.842;2023-02-15T20:23:23;6.30;99.90
46766;DHT22;32527;51.986;5.842;2023-02-15T20:25:50;6.30;99.90
46766;DHT22;32527;51.986;5.842;2023-02-15T20:28:20;6.30;99.90
46766;DHT22;32527;51.986;5.842;2023-02-15T20:30:46;6.30;99.90
46766;DHT22;32527;51.986;5.842;2023-02-15T20:33:13;6.30;99.90
46766;DHT22;32527;51.986;5.842;2023-02-15T20:35:39;6.30;99.90
46766;DHT22;32527;51.986;5.842;2023-02-15T20:38:05;6.30;99.90
46766;DHT22;32527;51.986;5.842;2023-02-15T20:40:33;6.40;99.90
46766;DHT22;32527;51.986;5.842;2023-02-15T20:43:00;6.40;99.90
46766;DHT22;32527;51.986;5.842;2023-02-15T20:45:31;6.50;99.90
46766;DHT22;32527;51.986;5.842;2023-02-15T20:47:57;6.40;99.90
46766;DHT22;32527;51.986;5.842;2023-02-15T20:50:31;6.30;99.90
46766;DHT22;32527;51.986;5.842;2023-02-15T20:52:58;6.40;99.90
46766;DHT22;32527;51.986;5.842;2023-02-15T20:55:29;7.60;99.90
46766;DHT22;32527;51.986;5.842;2023-02-15T20:57:57;6.20;99.90
46766;DHT22;32527;51.986;5.842;2023-02-15T21:00:25;6.40;99.90
46766;DHT22;32527;51.986;5.842;2023-02-15T21:02:57;6.30;99.90
46766;DHT22;32527;51.986;5.842;2023-02-15T21:05:29;6.20;99.90
46766;DHT22;32527;51.986;5.842;2023-02-15T21:07:56;6.20;99.90
46766;DHT22;32527;51.986;5.842;2023-02-15T21:10:27;6.20;99.90
46766;DHT22;32527;51.986;5.842;2023-02-15T21:12:55;5.90;99.90
46766;DHT22;32527;51.986;5.842;2023-02-15T21:15:36;6.20;99.90
46766;DHT22;32527;51.986;5.842;2023-02-15T21:18:13;6.80;99.90
46766;DHT22;32527;51.986;5.842;2023-02-15T21:20:44;6.50;99.90
46766;DHT22;32527;51.986;5.842;2023-02-15T21:23:13;7.60;99.90
46766;DHT22;32527;51.986;5.842;2023-02-15T21:25:40;6.70;99.90
46766;DHT22;32527;51.986;5.842;2023-02-15T21:28:18;6.40;99.90
46766;DHT22;32527;51.986;5.842;2023-02-15T21:30:45;6.40;99.90
46766;DHT22;32527;51.986;5.842;2023-02-15T21:33:11;6.50;99.90
46766;DHT22;32527;51.986;5.842;2023-02-15T21:35:37;6.60;99.90
46766;DHT22;32527;51.986;5.842;2023-02-15T21:38:03;6.40;99.90
46766;DHT22;32527;51.986;5.842;2023-02-15T21:40:31;6.30;99.90
46766;DHT22;32527;51.986;5.842;2023-02-15T21:45:42;6.40;99.90
46766;DHT22;32527;51.986;5.842;2023-02-15T21:48:40;7.10;99.90
46766;DHT22;32527;51.986;5.842;2023-02-15T21:51:05;6.40;99.90
46766;DHT22;32527;51.986;5.842;2023-02-15T21:56:20;6.50;99.90
46766;DHT22;32527;51.986;5.842;2023-02-15T21:58:46;6.50;99.90
46766;DHT22;32527;51.986;5.842;2023-02-15T22:01:24;6.50;99.90
46766;DHT22;32527;51.986;5.842;2023-02-15T22:03:52;6.60;99.90
46766;DHT22;32527;51.986;5.842;2023-02-15T22:06:18;6.30;99.90
46766;DHT22;32527;51.986;5.842;2023-02-15T22:08:44;6.30;99.90
46766;DHT22;32527;51.986;5.842;2023-02-15T22:11:17;6.60;99.90
46766;DHT22;32527;51.986;5.842;2023-02-15T22:13:44;6.40;99.90
46766;DHT22;32527;51.986;5.842;2023-02-15T22:16:21;6.70;99.90
46766;DHT22;32527;51.986;5.842;2023-02-15T22:18:47;6.40;99.90
46766;DHT22;32527;51.986;5.842;2023-02-15T22:21:14;6.30;99.90
46766;DHT22;32527;51.986;5.842;2023-02-15T22:23:43;6.40;99.90
46766;DHT22;32527;51.986;5.842;2023-02-15T22:26:19;6.20;99.90
46766;DHT22;32527;51.986;5.842;2023-02-15T22:28:47;6.10;99.90
46766;DHT22;32527;51.986;5.842;2023-02-15T22:31:14;6.10;99.90
46766;DHT22;32527;51.986;5.842;2023-02-15T22:33:43;8.00;99.90
46766;DHT22;32527;51.986;5.842;2023-02-15T22:36:26;6.00;99.90
46766;DHT22;32527;51.986;5.842;2023-02-15T22:38:53;5.90;99.90
46766;DHT22;32527;51.986;5.842;2023-02-15T22:41:20;7.50;99.90
46766;DHT22;32527;51.986;5.842;2023-02-15T22:43:47;5.90;99.90
46766;DHT22;32527;51.986;5.842;2023-02-15T22:46:16;5.80;99.90
46766;DHT22;32527;51.986;5.842;2023-02-15T22:48:44;5.70;99.90
46766;DHT22;32527;51.986;5.842;2023-02-15T22:51:16;5.80;99.90
46766;DHT22;32527;51.986;5.842;2023-02-15T22:53:42;5.70;99.90
46766;DHT22;32527;51.986;5.842;2023-02-15T22:56:15;5.70;99.90
46766;DHT22;32527;51.986;5.842;2023-02-15T23:01:21;5.70;99.90
46766;DHT22;32527;51.986;5.842;2023-02-15T23:03:47;5.70;99.90
46766;DHT22;32527;51.986;5.842;2023-02-15T23:06:13;6.20;99.90
46766;DHT22;32527;51.986;5.842;2023-02-15T23:08:40;8.20;99.90
46766;DHT22;32527;51.986;5.842;2023-02-15T23:11:09;5.60;99.90
46766;DHT22;32527;51.986;5.842;2023-02-15T23:16:03;5.70;99.90
46766;DHT22;32527;51.986;5.842;2023-02-15T23:18:38;5.40;99.90
46766;DHT22;32527;51.986;5.842;2023-02-15T23:23:41;7.20;99.90
46766;DHT22;32527;51.986;5.842;2023-02-15T23:26:26;5.60;99.90
46766;DHT22;32527;51.986;5.842;2023-02-15T23:28:54;5.60;99.90
46766;DHT22;32527;51.986;5.842;2023-02-15T23:33:48;5.60;99.90
46766;DHT22;32527;51.986;5.842;2023-02-15T23:36:46;5.60;99.90
46766;DHT22;32527;51.986;5.842;2023-02-15T23:39:21;5.50;99.90
46766;DHT22;32527;51.986;5.842;2023-02-15T23:42:10;5.30;99.90
46766;DHT22;32527;51.986;5.842;2023-02-15T23:44:38;5.40;99.90
46766;DHT22;32527;51.986;5.842;2023-02-15T23:47:06;5.40;99.90
46766;DHT22;32527;51.986;5.842;2023-02-15T23:49:39;5.30;99.90
46766;DHT22;32527;51.986;5.842;2023-02-15T23:52:08;5.20;99.90
46766;DHT22;32527;51.986;5.842;2023-02-15T23:54:35;5.20;99.90
46766;DHT22;32527;51.986;5.842;2023-02-15T23:57:01;5.20;99.90
46766;DHT22;32527;51.986;5.842;2023-02-15T23:59:30;5.20;99.90
